Canefield Airport

Partly cloudy with slight haze
30oC (86oF)

Partly cloudy with slight haze


Winds: South easterly @ 08kts / 15km/h

Humidity: 53%

Barometric Pressure: 1013 mb

Accumulated Rainfall for November: 268.0 mm

Updated: 13:00 local time (17:00 UTC)

Douglas-Charles Airport

Cloudy with slight haze and adjacent showers
28oC (82oF)

Cloudy with slight haze and adjacent showers


Winds: East south easterly @ 09kts / 17km/h

Humidity: 72%

Barometric Pressure: 1015 mb

Accumulated Rainfall for November: 586.2 mm

Updated: 13:00 local time (17:00 UTC)

Satellite Imagery

Satellite Imagery
Click image for larger view. (Source: National Hurricane Center).

Aviation Routine Report (METAR)

Douglas-Charles: METAR TDPD 151700Z 12009KT 9999 BKN022 28/22 Q1015=
Canefield: METAR TDCF 151700Z 13008KT 9999 FEW019 30/20 Q1013=